»·PEaware :: DCM720 KOTH-KTVL

DCM720 :: KOTH-KTVL

FLIGHT INFORMATION

Flight Status: Arrived
Operator: Unknown
More flights by this operator :: More flights under this callsign
Pilot: Shawn N. (11060)
Aircraft: BOEING 737-800
(B738)
More flights by this aircraft type
Origin: KOTH North Bend Mun
United States
Destination: KTVL Lake Tahoe
United States
More flights between these airports :: More routes between these airports
Route: +OTH6 DEROY LMT J92 FMG
File this flight plan on PilotEdge
Remarks:
Altitude:
(Current/Filed)
35,000ft
Speed:
(Current/Filed)
460kts
Departed: 07-Aug-18 10:05 AM
Arrived: 07-Aug-18 11:05 AM
Distance/Time
Traveled:
332nm/1:00
Distance/Time
To Go:
Arrived

Flight Plot

Page will automatically refresh every two minutes.

Flight plan parsing failed; only flown route is shown


Map Options




Map Legend


Flown Route
Filed Route
Departure Airport
Arrival Airport
Navaid (VOR, NDB)
Fix

Horizontal Profiles

Position Reports

Time Latitude Longitude Heading Altitude Ground
Speed
07-Aug-18 09:56 43.417295 -124.246462 330 25ft 0kts
07-Aug-18 09:57 43.417295 -124.246462 330 25ft 0kts
07-Aug-18 09:58 43.417295 -124.246462 330 25ft 0kts
07-Aug-18 09:59 43.417295 -124.246462 330 25ft 0kts
07-Aug-18 10:00 43.417295 -124.246462 330 25ft 0kts
07-Aug-18 10:01 43.418378 -124.246508 329 23ft 11kts
07-Aug-18 10:02 43.417099 -124.251735 241 26ft 23kts
07-Aug-18 10:03 43.413901 -124.259490 253 11ft 0kts
07-Aug-18 10:04 43.413939 -124.259849 307 11ft 0kts
07-Aug-18 10:05 43.413939 -124.259849 307 11ft 0kts
07-Aug-18 10:06 43.418015 -124.252562 60 24ft 120kts
07-Aug-18 10:07 43.448040 -124.251121 262 1940ft 206kts
07-Aug-18 10:08 43.419148 -124.322578 243 4432ft 248kts
07-Aug-18 10:09 43.439547 -124.407376 346 7858ft 291kts
07-Aug-18 10:10 43.484493 -124.336495 111 10697ft 318kts
07-Aug-18 10:11 43.440931 -124.227935 122 14018ft 336kts
07-Aug-18 10:12 43.384812 -124.123904 137 17302ft 350kts
07-Aug-18 10:13 43.314361 -124.028412 137 20343ft 365kts
07-Aug-18 10:14 43.247390 -123.921339 126 23076ft 382kts
07-Aug-18 10:15 43.187178 -123.798550 128 25379ft 399kts
07-Aug-18 10:16 43.122918 -123.671320 128 27415ft 416kts
07-Aug-18 10:17 43.056154 -123.539333 128 29322ft 431kts
07-Aug-18 10:18 42.988160 -123.404618 128 31596ft 429kts
07-Aug-18 10:19 42.924128 -123.277526 129 33661ft 425kts
07-Aug-18 10:20 42.860240 -123.150512 128 35169ft 428kts
07-Aug-18 10:21 42.790571 -123.011669 128 35178ft 460kts
07-Aug-18 10:22 42.718370 -122.867266 127 35096ft 466kts
07-Aug-18 10:23 42.646004 -122.722297 127 35075ft 464kts
07-Aug-18 10:24 42.573729 -122.577160 127 35075ft 465kts
07-Aug-18 10:25 42.501725 -122.432226 126 35076ft 465kts
07-Aug-18 10:26 42.431436 -122.290395 127 35071ft 464kts
07-Aug-18 10:27 42.359724 -122.145373 126 35181ft 467kts
07-Aug-18 10:28 42.287848 -121.999668 126 35182ft 465kts
07-Aug-18 10:29 42.216248 -121.854257 126 35183ft 467kts
07-Aug-18 10:30 42.138358 -121.716802 143 35191ft 460kts
07-Aug-18 10:31 42.030515 -121.626212 152 35183ft 457kts
07-Aug-18 10:32 41.920955 -121.538982 152 35184ft 458kts
07-Aug-18 10:33 41.815500 -121.454814 151 35186ft 458kts
07-Aug-18 10:34 41.706818 -121.368020 151 35186ft 458kts
07-Aug-18 10:35 41.598773 -121.281653 152 35190ft 457kts
07-Aug-18 10:36 41.489914 -121.194612 151 35191ft 459kts
07-Aug-18 10:37 41.380736 -121.107243 151 35191ft 458kts
07-Aug-18 10:38 41.271493 -121.019784 151 35191ft 459kts
07-Aug-18 10:39 41.162417 -120.932412 151 35192ft 460kts
07-Aug-18 10:40 41.053480 -120.845099 151 35192ft 460kts
07-Aug-18 10:41 40.944206 -120.757473 151 35192ft 460kts
07-Aug-18 10:42 40.839602 -120.673558 150 35166ft 461kts
07-Aug-18 10:43 40.730433 -120.585927 150 35166ft 461kts
07-Aug-18 10:44 40.621089 -120.498122 150 35166ft 460kts
07-Aug-18 10:45 40.512432 -120.410841 150 35167ft 460kts
07-Aug-18 10:46 40.404415 -120.324048 151 35163ft 460kts
07-Aug-18 10:47 40.294783 -120.238886 152 35163ft 458kts
07-Aug-18 10:48 40.185000 -120.154863 152 35163ft 458kts
07-Aug-18 10:49 40.076639 -120.072067 152 32869ft 454kts
07-Aug-18 10:50 39.969173 -119.989950 151 29797ft 441kts
07-Aug-18 10:51 39.871458 -119.915294 151 27225ft 423kts
07-Aug-18 10:52 39.772811 -119.839912 150 24605ft 405kts
07-Aug-18 10:53 39.677922 -119.767365 150 22042ft 389kts
07-Aug-18 10:54 39.586714 -119.697663 152 19629ft 372kts
07-Aug-18 10:55 39.490506 -119.707338 200 15972ft 355kts
07-Aug-18 10:56 39.402446 -119.750478 199 13911ft 332kts
07-Aug-18 10:57 39.315343 -119.793056 199 13407ft 326kts
07-Aug-18 10:58 39.235452 -119.832061 200 12917ft 299kts
07-Aug-18 10:59 39.174169 -119.902994 220 12066ft 288kts
07-Aug-18 11:00 39.108598 -119.933218 190 10665ft 223kts
07-Aug-18 11:01 39.054383 -119.949771 190 9242ft 186kts
07-Aug-18 11:02 39.008868 -119.964312 189 8355ft 161kts
07-Aug-18 11:03 38.965157 -119.974696 187 7599ft 158kts
07-Aug-18 11:04 38.920971 -119.987381 191 6582ft 166kts
07-Aug-18 11:05 38.887246 -119.997190 193 6241ft 45kts
07-Aug-18 11:06 38.883958 -119.999239 13 6241ft 15kts
07-Aug-18 11:07 38.890962 -119.997170 11 6241ft 33kts
07-Aug-18 11:08 38.892258 -119.998127 28 6241ft 0kts
07-Aug-18 11:09 38.892258 -119.998127 28 6241ft 0kts

Navigation Log

Ident Type
Flight plan parsing failed, navigation log unavailable